sensor_id;sensor_type;location;lat;lon;timestamp;P1;durP1;ratioP1;P2;durP2;ratioP2
74124;SDS011;62475;52.192;5.396;2022-12-04T00:00:11;53.88;;;18.60;;
74124;SDS011;62475;52.192;5.396;2022-12-04T00:02:38;48.72;;;17.33;;
74124;SDS011;62475;52.192;5.396;2022-12-04T00:05:05;43.67;;;16.63;;
74124;SDS011;62475;52.192;5.396;2022-12-04T00:07:31;41.92;;;15.52;;
74124;SDS011;62475;52.192;5.396;2022-12-04T00:09:56;37.05;;;12.20;;
74124;SDS011;62475;52.192;5.396;2022-12-04T00:12:22;46.97;;;15.88;;
74124;SDS011;62475;52.192;5.396;2022-12-04T00:14:47;49.92;;;17.40;;
74124;SDS011;62475;52.192;5.396;2022-12-04T00:17:12;37.20;;;14.73;;
74124;SDS011;62475;52.192;5.396;2022-12-04T00:19:38;49.53;;;19.38;;
74124;SDS011;62475;52.192;5.396;2022-12-04T00:22:03;47.43;;;17.33;;
74124;SDS011;62475;52.192;5.396;2022-12-04T00:24:28;38.55;;;14.45;;
74124;SDS011;62475;52.192;5.396;2022-12-04T00:26:54;49.72;;;16.80;;
74124;SDS011;62475;52.192;5.396;2022-12-04T00:29:19;41.97;;;15.13;;
74124;SDS011;62475;52.192;5.396;2022-12-04T00:31:44;58.33;;;19.38;;
74124;SDS011;62475;52.192;5.396;2022-12-04T00:34:10;47.53;;;17.40;;
74124;SDS011;62475;52.192;5.396;2022-12-04T00:36:35;42.08;;;15.48;;
74124;SDS011;62475;52.192;5.396;2022-12-04T00:39:02;39.15;;;14.50;;
74124;SDS011;62475;52.192;5.396;2022-12-04T00:41:28;43.60;;;15.25;;
74124;SDS011;62475;52.192;5.396;2022-12-04T00:43:55;34.85;;;13.35;;
74124;SDS011;62475;52.192;5.396;2022-12-04T00:46:21;48.47;;;16.92;;
74124;SDS011;62475;52.192;5.396;2022-12-04T00:48:47;38.10;;;16.30;;
74124;SDS011;62475;52.192;5.396;2022-12-04T00:51:15;54.90;;;20.13;;
74124;SDS011;62475;52.192;5.396;2022-12-04T00:53:45;50.83;;;18.75;;
74124;SDS011;62475;52.192;5.396;2022-12-04T00:56:12;44.28;;;17.52;;
74124;SDS011;62475;52.192;5.396;2022-12-04T00:58:40;40.75;;;15.77;;
74124;SDS011;62475;52.192;5.396;2022-12-04T01:01:07;41.17;;;17.92;;
74124;SDS011;62475;52.192;5.396;2022-12-04T01:03:38;51.80;;;17.92;;
74124;SDS011;62475;52.192;5.396;2022-12-04T01:06:04;41.83;;;18.75;;
74124;SDS011;62475;52.192;5.396;2022-12-04T01:08:30;40.83;;;18.83;;
74124;SDS011;62475;52.192;5.396;2022-12-04T01:10:56;47.40;;;15.40;;
74124;SDS011;62475;52.192;5.396;2022-12-04T01:13:22;52.53;;;18.63;;
74124;SDS011;62475;52.192;5.396;2022-12-04T01:15:48;38.08;;;14.52;;
74124;SDS011;62475;52.192;5.396;2022-12-04T01:18:14;40.53;;;14.07;;
74124;SDS011;62475;52.192;5.396;2022-12-04T01:20:44;53.58;;;19.88;;
74124;SDS011;62475;52.192;5.396;2022-12-04T01:23:11;50.35;;;18.92;;
74124;SDS011;62475;52.192;5.396;2022-12-04T01:25:36;40.15;;;15.43;;
74124;SDS011;62475;52.192;5.396;2022-12-04T01:28:02;55.97;;;18.10;;
74124;SDS011;62475;52.192;5.396;2022-12-04T01:30:27;53.85;;;19.13;;
74124;SDS011;62475;52.192;5.396;2022-12-04T01:32:52;50.40;;;16.48;;
74124;SDS011;62475;52.192;5.396;2022-12-04T01:35:18;41.33;;;15.70;;
74124;SDS011;62475;52.192;5.396;2022-12-04T01:37:43;33.92;;;12.43;;
74124;SDS011;62475;52.192;5.396;2022-12-04T01:40:13;49.42;;;18.88;;
74124;SDS011;62475;52.192;5.396;2022-12-04T01:42:40;27.63;;;11.88;;
74124;SDS011;62475;52.192;5.396;2022-12-04T01:48:02;53.03;;;18.58;;
74124;SDS011;62475;52.192;5.396;2022-12-04T01:50:34;44.83;;;17.65;;
74124;SDS011;62475;52.192;5.396;2022-12-04T01:53:00;41.50;;;15.68;;
74124;SDS011;62475;52.192;5.396;2022-12-04T01:55:25;56.28;;;17.58;;
74124;SDS011;62475;52.192;5.396;2022-12-04T01:57:53;39.25;;;14.30;;
74124;SDS011;62475;52.192;5.396;2022-12-04T02:00:20;51.38;;;18.15;;
74124;SDS011;62475;52.192;5.396;2022-12-04T02:02:46;35.75;;;15.30;;
74124;SDS011;62475;52.192;5.396;2022-12-04T02:05:14;37.55;;;13.57;;
74124;SDS011;62475;52.192;5.396;2022-12-04T02:07:42;58.50;;;17.60;;
74124;SDS011;62475;52.192;5.396;2022-12-04T02:10:09;53.88;;;18.80;;
74124;SDS011;62475;52.192;5.396;2022-12-04T02:12:46;47.90;;;16.40;;
74124;SDS011;62475;52.192;5.396;2022-12-04T02:15:38;59.97;;;19.20;;
74124;SDS011;62475;52.192;5.396;2022-12-04T02:18:17;50.00;;;18.52;;
74124;SDS011;62475;52.192;5.396;2022-12-04T02:21:13;52.53;;;18.13;;
74124;SDS011;62475;52.192;5.396;2022-12-04T02:27:15;50.53;;;16.35;;
74124;SDS011;62475;52.192;5.396;2022-12-04T02:29:56;42.10;;;15.50;;
74124;SDS011;62475;52.192;5.396;2022-12-04T02:39:01;51.10;;;17.45;;
74124;SDS011;62475;52.192;5.396;2022-12-04T02:41:08;43.28;;;15.38;;
74124;SDS011;62475;52.192;5.396;2022-12-04T02:43:43;56.28;;;20.52;;
74124;SDS011;62475;52.192;5.396;2022-12-04T02:46:20;38.55;;;16.27;;
74124;SDS011;62475;52.192;5.396;2022-12-04T02:48:53;32.03;;;12.73;;
74124;SDS011;62475;52.192;5.396;2022-12-04T02:51:21;35.22;;;14.57;;
74124;SDS011;62475;52.192;5.396;2022-12-04T02:53:51;53.70;;;20.55;;
74124;SDS011;62475;52.192;5.396;2022-12-04T02:56:31;46.45;;;16.52;;
74124;SDS011;62475;52.192;5.396;2022-12-04T02:59:09;41.70;;;13.60;;
74124;SDS011;62475;52.192;5.396;2022-12-04T03:01:39;44.33;;;16.63;;
74124;SDS011;62475;52.192;5.396;2022-12-04T03:06:40;29.50;;;11.40;;
74124;SDS011;62475;52.192;5.396;2022-12-04T03:09:09;60.17;;;21.83;;
74124;SDS011;62475;52.192;5.396;2022-12-04T03:11:40;53.97;;;20.02;;
74124;SDS011;62475;52.192;5.396;2022-12-04T03:14:11;51.65;;;18.25;;
74124;SDS011;62475;52.192;5.396;2022-12-04T03:19:17;34.35;;;15.30;;
74124;SDS011;62475;52.192;5.396;2022-12-04T03:21:47;38.58;;;14.07;;
74124;SDS011;62475;52.192;5.396;2022-12-04T03:24:25;38.05;;;15.77;;
74124;SDS011;62475;52.192;5.396;2022-12-04T03:26:58;44.10;;;16.38;;
74124;SDS011;62475;52.192;5.396;2022-12-04T03:29:32;54.83;;;17.42;;
74124;SDS011;62475;52.192;5.396;2022-12-04T03:32:07;40.40;;;17.27;;
74124;SDS011;62475;52.192;5.396;2022-12-04T03:34:38;47.28;;;18.45;;
74124;SDS011;62475;52.192;5.396;2022-12-04T03:37:12;45.80;;;15.55;;
74124;SDS011;62475;52.192;5.396;2022-12-04T03:39:50;50.22;;;17.75;;
74124;SDS011;62475;52.192;5.396;2022-12-04T03:42:25;58.05;;;18.52;;
74124;SDS011;62475;52.192;5.396;2022-12-04T03:45:00;50.08;;;18.27;;
74124;SDS011;62475;52.192;5.396;2022-12-04T03:50:15;55.10;;;18.88;;
74124;SDS011;62475;52.192;5.396;2022-12-04T03:52:49;50.90;;;16.85;;
74124;SDS011;62475;52.192;5.396;2022-12-04T03:55:23;42.78;;;15.50;;
74124;SDS011;62475;52.192;5.396;2022-12-04T03:57:59;47.78;;;16.77;;
74124;SDS011;62475;52.192;5.396;2022-12-04T04:00:30;56.67;;;20.15;;
74124;SDS011;62475;52.192;5.396;2022-12-04T04:05:24;55.08;;;19.48;;
74124;SDS011;62475;52.192;5.396;2022-12-04T04:08:12;34.10;;;13.90;;
74124;SDS011;62475;52.192;5.396;2022-12-04T04:10:54;32.97;;;15.15;;
74124;SDS011;62475;52.192;5.396;2022-12-04T04:13:29;45.00;;;15.30;;
74124;SDS011;62475;52.192;5.396;2022-12-04T04:16:19;40.55;;;16.60;;
74124;SDS011;62475;52.192;5.396;2022-12-04T04:19:06;58.65;;;21.42;;
74124;SDS011;62475;52.192;5.396;2022-12-04T04:21:51;50.92;;;17.60;;
74124;SDS011;62475;52.192;5.396;2022-12-04T04:25:20;56.45;;;18.83;;
74124;SDS011;62475;52.192;5.396;2022-12-04T04:27:28;40.85;;;16.13;;
74124;SDS011;62475;52.192;5.396;2022-12-04T04:29:53;38.08;;;14.35;;
74124;SDS011;62475;52.192;5.396;2022-12-04T04:32:23;41.77;;;17.97;;
74124;SDS011;62475;52.192;5.396;2022-12-04T04:38:00;42.47;;;16.25;;
74124;SDS011;62475;52.192;5.396;2022-12-04T04:43:25;39.63;;;15.45;;
74124;SDS011;62475;52.192;5.396;2022-12-04T04:46:07;53.67;;;18.15;;
74124;SDS011;62475;52.192;5.396;2022-12-04T04:48:43;51.30;;;17.08;;
74124;SDS011;62475;52.192;5.396;2022-12-04T04:51:13;56.17;;;19.17;;
74124;SDS011;62475;52.192;5.396;2022-12-04T04:53:41;55.38;;;20.45;;
74124;SDS011;62475;52.192;5.396;2022-12-04T04:56:10;39.45;;;13.73;;
74124;SDS011;62475;52.192;5.396;2022-12-04T04:58:36;55.53;;;20.33;;
74124;SDS011;62475;52.192;5.396;2022-12-04T05:01:03;63.03;;;21.27;;
74124;SDS011;62475;52.192;5.396;2022-12-04T05:03:32;49.70;;;17.50;;
74124;SDS011;62475;52.192;5.396;2022-12-04T05:05:57;44.50;;;16.55;;
74124;SDS011;62475;52.192;5.396;2022-12-04T05:08:30;38.00;;;15.45;;
74124;SDS011;62475;52.192;5.396;2022-12-04T05:10:55;43.05;;;15.85;;
74124;SDS011;62475;52.192;5.396;2022-12-04T05:13:20;60.50;;;22.90;;
74124;SDS011;62475;52.192;5.396;2022-12-04T05:16:03;59.33;;;20.52;;
74124;SDS011;62475;52.192;5.396;2022-12-04T05:18:30;53.80;;;20.80;;
74124;SDS011;62475;52.192;5.396;2022-12-04T05:20:56;46.75;;;16.77;;
74124;SDS011;62475;52.192;5.396;2022-12-04T05:23:22;42.47;;;18.20;;
74124;SDS011;62475;52.192;5.396;2022-12-04T05:25:47;50.35;;;19.83;;
74124;SDS011;62475;52.192;5.396;2022-12-04T05:28:13;42.20;;;14.45;;
74124;SDS011;62475;52.192;5.396;2022-12-04T05:30:38;52.95;;;17.38;;
74124;SDS011;62475;52.192;5.396;2022-12-04T05:33:03;43.55;;;14.57;;
74124;SDS011;62475;52.192;5.396;2022-12-04T05:35:29;40.83;;;17.42;;
74124;SDS011;62475;52.192;5.396;2022-12-04T05:37:54;51.47;;;19.17;;
74124;SDS011;62475;52.192;5.396;2022-12-04T05:40:19;47.03;;;18.75;;
74124;SDS011;62475;52.192;5.396;2022-12-04T05:42:45;61.88;;;21.95;;
74124;SDS011;62475;52.192;5.396;2022-12-04T05:45:10;29.23;;;12.20;;
74124;SDS011;62475;52.192;5.396;2022-12-04T05:47:39;37.67;;;14.52;;
74124;SDS011;62475;52.192;5.396;2022-12-04T05:50:07;60.25;;;21.15;;
74124;SDS011;62475;52.192;5.396;2022-12-04T05:52:34;48.70;;;19.58;;
74124;SDS011;62475;52.192;5.396;2022-12-04T05:55:00;43.90;;;19.70;;
74124;SDS011;62475;52.192;5.396;2022-12-04T05:57:25;49.70;;;18.35;;
74124;SDS011;62475;52.192;5.396;2022-12-04T05:59:51;49.42;;;20.77;;
74124;SDS011;62475;52.192;5.396;2022-12-04T06:02:16;54.40;;;18.58;;
74124;SDS011;62475;52.192;5.396;2022-12-04T06:04:41;42.90;;;15.18;;
74124;SDS011;62475;52.192;5.396;2022-12-04T06:07:07;41.10;;;14.50;;
74124;SDS011;62475;52.192;5.396;2022-12-04T06:09:33;49.63;;;19.98;;
74124;SDS011;62475;52.192;5.396;2022-12-04T06:11:59;34.00;;;14.27;;
74124;SDS011;62475;52.192;5.396;2022-12-04T06:14:24;42.53;;;17.58;;
74124;SDS011;62475;52.192;5.396;2022-12-04T06:16:49;52.22;;;18.02;;
74124;SDS011;62475;52.192;5.396;2022-12-04T06:19:16;46.47;;;20.37;;
74124;SDS011;62475;52.192;5.396;2022-12-04T06:21:43;39.92;;;15.85;;
74124;SDS011;62475;52.192;5.396;2022-12-04T06:24:14;49.00;;;17.38;;
74124;SDS011;62475;52.192;5.396;2022-12-04T06:26:41;52.05;;;19.58;;
74124;SDS011;62475;52.192;5.396;2022-12-04T06:30:13;42.78;;;14.88;;
74124;SDS011;62475;52.192;5.396;2022-12-04T06:32:39;36.97;;;14.27;;
74124;SDS011;62475;52.192;5.396;2022-12-04T06:35:04;42.90;;;16.42;;
74124;SDS011;62475;52.192;5.396;2022-12-04T06:37:33;46.63;;;18.10;;
74124;SDS011;62475;52.192;5.396;2022-12-04T06:39:58;39.95;;;17.05;;
74124;SDS011;62475;52.192;5.396;2022-12-04T06:42:23;59.83;;;18.90;;
74124;SDS011;62475;52.192;5.396;2022-12-04T06:44:49;32.97;;;14.15;;
74124;SDS011;62475;52.192;5.396;2022-12-04T06:47:14;27.60;;;10.33;;
74124;SDS011;62475;52.192;5.396;2022-12-04T06:49:39;45.03;;;16.43;;
74124;SDS011;62475;52.192;5.396;2022-12-04T06:52:04;43.83;;;15.75;;
74124;SDS011;62475;52.192;5.396;2022-12-04T06:54:30;40.30;;;16.70;;
74124;SDS011;62475;52.192;5.396;2022-12-04T06:56:55;51.70;;;16.38;;
74124;SDS011;62475;52.192;5.396;2022-12-04T06:59:20;51.65;;;18.85;;
74124;SDS011;62475;52.192;5.396;2022-12-04T07:01:46;45.17;;;14.48;;
74124;SDS011;62475;52.192;5.396;2022-12-04T07:04:11;42.37;;;16.30;;
74124;SDS011;62475;52.192;5.396;2022-12-04T07:06:37;38.67;;;14.25;;
74124;SDS011;62475;52.192;5.396;2022-12-04T07:09:07;54.92;;;20.13;;
74124;SDS011;62475;52.192;5.396;2022-12-04T07:11:41;46.35;;;16.95;;
74124;SDS011;62475;52.192;5.396;2022-12-04T07:14:07;50.08;;;17.73;;
74124;SDS011;62475;52.192;5.396;2022-12-04T07:16:33;61.08;;;19.75;;
74124;SDS011;62475;52.192;5.396;2022-12-04T07:18:58;40.97;;;15.00;;
74124;SDS011;62475;52.192;5.396;2022-12-04T07:21:25;43.75;;;14.82;;
74124;SDS011;62475;52.192;5.396;2022-12-04T07:23:53;40.53;;;14.88;;
74124;SDS011;62475;52.192;5.396;2022-12-04T07:26:20;56.05;;;18.98;;
74124;SDS011;62475;52.192;5.396;2022-12-04T07:28:47;50.72;;;17.85;;
74124;SDS011;62475;52.192;5.396;2022-12-04T07:31:13;50.53;;;17.65;;
74124;SDS011;62475;52.192;5.396;2022-12-04T07:33:41;40.17;;;13.35;;
74124;SDS011;62475;52.192;5.396;2022-12-04T07:36:08;42.25;;;17.13;;
74124;SDS011;62475;52.192;5.396;2022-12-04T07:38:37;38.83;;;13.73;;
74124;SDS011;62475;52.192;5.396;2022-12-04T07:41:03;46.13;;;16.77;;
74124;SDS011;62475;52.192;5.396;2022-12-04T07:43:29;37.53;;;16.02;;
74124;SDS011;62475;52.192;5.396;2022-12-04T07:45:56;58.13;;;18.00;;
74124;SDS011;62475;52.192;5.396;2022-12-04T07:48:22;60.05;;;19.42;;
74124;SDS011;62475;52.192;5.396;2022-12-04T07:50:48;26.90;;;13.40;;
74124;SDS011;62475;52.192;5.396;2022-12-04T07:53:13;44.70;;;18.25;;
74124;SDS011;62475;52.192;5.396;2022-12-04T07:55:39;38.65;;;15.75;;
74124;SDS011;62475;52.192;5.396;2022-12-04T07:58:04;44.55;;;16.55;;
74124;SDS011;62475;52.192;5.396;2022-12-04T08:00:30;46.28;;;16.00;;
74124;SDS011;62475;52.192;5.396;2022-12-04T08:02:55;45.05;;;16.40;;
74124;SDS011;62475;52.192;5.396;2022-12-04T08:05:22;33.45;;;14.20;;
74124;SDS011;62475;52.192;5.396;2022-12-04T08:07:47;34.38;;;13.32;;
74124;SDS011;62475;52.192;5.396;2022-12-04T08:10:13;44.43;;;15.90;;
74124;SDS011;62475;52.192;5.396;2022-12-04T08:12:38;39.72;;;16.08;;
74124;SDS011;62475;52.192;5.396;2022-12-04T08:15:04;50.15;;;18.75;;
74124;SDS011;62475;52.192;5.396;2022-12-04T08:17:30;54.35;;;19.65;;
74124;SDS011;62475;52.192;5.396;2022-12-04T08:19:56;51.03;;;18.38;;
74124;SDS011;62475;52.192;5.396;2022-12-04T08:22:21;44.83;;;17.98;;
74124;SDS011;62475;52.192;5.396;2022-12-04T08:24:46;53.78;;;20.00;;
74124;SDS011;62475;52.192;5.396;2022-12-04T08:27:12;46.45;;;17.75;;
74124;SDS011;62475;52.192;5.396;2022-12-04T08:29:37;55.25;;;20.17;;
74124;SDS011;62475;52.192;5.396;2022-12-04T08:32:03;39.53;;;14.80;;
74124;SDS011;62475;52.192;5.396;2022-12-04T08:34:29;47.17;;;15.10;;
74124;SDS011;62475;52.192;5.396;2022-12-04T08:36:54;53.92;;;18.20;;
74124;SDS011;62475;52.192;5.396;2022-12-04T08:39:19;50.67;;;17.20;;
74124;SDS011;62475;52.192;5.396;2022-12-04T08:41:45;47.10;;;16.40;;
74124;SDS011;62475;52.192;5.396;2022-12-04T08:44:10;50.83;;;17.70;;
74124;SDS011;62475;52.192;5.396;2022-12-04T08:46:36;46.30;;;15.60;;
74124;SDS011;62475;52.192;5.396;2022-12-04T08:49:03;49.42;;;15.40;;
74124;SDS011;62475;52.192;5.396;2022-12-04T08:51:29;53.90;;;18.23;;
74124;SDS011;62475;52.192;5.396;2022-12-04T08:53:57;46.33;;;16.58;;
74124;SDS011;62475;52.192;5.396;2022-12-04T08:56:24;41.63;;;16.10;;
74124;SDS011;62475;52.192;5.396;2022-12-04T08:58:51;40.53;;;14.23;;
74124;SDS011;62475;52.192;5.396;2022-12-04T09:01:17;41.53;;;16.65;;
74124;SDS011;62475;52.192;5.396;2022-12-04T09:03:43;37.10;;;15.38;;
74124;SDS011;62475;52.192;5.396;2022-12-04T09:06:09;35.35;;;14.80;;
74124;SDS011;62475;52.192;5.396;2022-12-04T09:08:36;44.05;;;13.88;;
74124;SDS011;62475;52.192;5.396;2022-12-04T09:11:09;33.90;;;13.27;;
74124;SDS011;62475;52.192;5.396;2022-12-04T09:13:36;42.17;;;15.75;;
74124;SDS011;62475;52.192;5.396;2022-12-04T09:16:03;41.55;;;14.60;;
74124;SDS011;62475;52.192;5.396;2022-12-04T09:18:31;53.55;;;18.05;;
74124;SDS011;62475;52.192;5.396;2022-12-04T09:20:56;46.30;;;17.35;;
74124;SDS011;62475;52.192;5.396;2022-12-04T09:23:24;43.58;;;16.15;;
74124;SDS011;62475;52.192;5.396;2022-12-04T09:25:50;48.45;;;16.92;;
74124;SDS011;62475;52.192;5.396;2022-12-04T09:28:16;43.00;;;15.00;;
74124;SDS011;62475;52.192;5.396;2022-12-04T09:30:41;46.10;;;15.83;;
74124;SDS011;62475;52.192;5.396;2022-12-04T09:33:06;49.33;;;18.10;;
74124;SDS011;62475;52.192;5.396;2022-12-04T09:35:35;43.70;;;15.52;;
74124;SDS011;62475;52.192;5.396;2022-12-04T09:38:02;59.97;;;18.23;;
74124;SDS011;62475;52.192;5.396;2022-12-04T09:40:28;30.37;;;13.47;;
74124;SDS011;62475;52.192;5.396;2022-12-04T09:43:10;45.47;;;16.90;;
74124;SDS011;62475;52.192;5.396;2022-12-04T09:45:45;47.03;;;14.55;;
74124;SDS011;62475;52.192;5.396;2022-12-04T09:48:16;47.67;;;16.13;;
74124;SDS011;62475;52.192;5.396;2022-12-04T09:50:45;43.20;;;15.13;;
74124;SDS011;62475;52.192;5.396;2022-12-04T09:53:13;49.25;;;14.85;;
74124;SDS011;62475;52.192;5.396;2022-12-04T10:01:13;51.50;;;16.30;;
74124;SDS011;62475;52.192;5.396;2022-12-04T10:03:44;34.03;;;12.57;;
74124;SDS011;62475;52.192;5.396;2022-12-04T10:06:10;50.65;;;18.50;;
74124;SDS011;62475;52.192;5.396;2022-12-04T10:08:41;39.58;;;12.70;;
74124;SDS011;62475;52.192;5.396;2022-12-04T10:11:22;36.92;;;13.88;;
74124;SDS011;62475;52.192;5.396;2022-12-04T10:14:22;35.53;;;12.98;;
74124;SDS011;62475;52.192;5.396;2022-12-04T10:19:46;40.67;;;14.43;;
74124;SDS011;62475;52.192;5.396;2022-12-04T10:25:15;23.25;;;9.95;;
74124;SDS011;62475;52.192;5.396;2022-12-04T10:27:48;33.40;;;13.00;;
74124;SDS011;62475;52.192;5.396;2022-12-04T10:30:20;25.23;;;11.27;;
74124;SDS011;62475;52.192;5.396;2022-12-04T10:32:55;40.83;;;12.82;;
74124;SDS011;62475;52.192;5.396;2022-12-04T10:35:24;30.45;;;11.27;;
74124;SDS011;62475;52.192;5.396;2022-12-04T10:40:25;37.20;;;12.68;;
74124;SDS011;62475;52.192;5.396;2022-12-04T10:43:10;20.63;;;9.27;;
74124;SDS011;62475;52.192;5.396;2022-12-04T10:45:41;32.95;;;11.55;;
74124;SDS011;62475;52.192;5.396;2022-12-04T10:48:06;25.65;;;10.85;;
74124;SDS011;62475;52.192;5.396;2022-12-04T10:50:42;28.52;;;11.73;;
74124;SDS011;62475;52.192;5.396;2022-12-04T10:53:10;31.45;;;12.27;;
74124;SDS011;62475;52.192;5.396;2022-12-04T10:55:39;27.17;;;10.00;;
74124;SDS011;62475;52.192;5.396;2022-12-04T10:58:13;21.63;;;8.18;;
74124;SDS011;62475;52.192;5.396;2022-12-04T11:00:40;29.13;;;11.95;;
74124;SDS011;62475;52.192;5.396;2022-12-04T11:03:21;25.85;;;9.60;;
74124;SDS011;62475;52.192;5.396;2022-12-04T11:06:04;35.10;;;11.00;;
74124;SDS011;62475;52.192;5.396;2022-12-04T11:08:39;29.92;;;10.73;;
74124;SDS011;62475;52.192;5.396;2022-12-04T11:11:09;28.80;;;11.27;;
74124;SDS011;62475;52.192;5.396;2022-12-04T11:13:38;28.25;;;10.38;;
74124;SDS011;62475;52.192;5.396;2022-12-04T11:16:04;21.42;;;8.82;;
74124;SDS011;62475;52.192;5.396;2022-12-04T11:18:33;24.70;;;9.07;;
74124;SDS011;62475;52.192;5.396;2022-12-04T11:21:14;28.58;;;11.93;;
74124;SDS011;62475;52.192;5.396;2022-12-04T11:23:43;25.83;;;10.27;;
74124;SDS011;62475;52.192;5.396;2022-12-04T11:26:11;27.67;;;11.10;;
74124;SDS011;62475;52.192;5.396;2022-12-04T11:28:37;23.60;;;10.10;;
74124;SDS011;62475;52.192;5.396;2022-12-04T11:31:08;22.50;;;9.25;;
74124;SDS011;62475;52.192;5.396;2022-12-04T11:33:42;19.40;;;6.80;;
74124;SDS011;62475;52.192;5.396;2022-12-04T11:36:18;23.05;;;9.52;;
74124;SDS011;62475;52.192;5.396;2022-12-04T11:38:50;17.65;;;9.63;;
74124;SDS011;62475;52.192;5.396;2022-12-04T11:41:27;20.60;;;7.63;;
74124;SDS011;62475;52.192;5.396;2022-12-04T11:43:54;16.40;;;8.70;;
74124;SDS011;62475;52.192;5.396;2022-12-04T11:46:22;25.23;;;9.32;;
74124;SDS011;62475;52.192;5.396;2022-12-04T11:48:49;18.35;;;7.75;;
74124;SDS011;62475;52.192;5.396;2022-12-04T11:51:19;23.70;;;8.38;;
74124;SDS011;62475;52.192;5.396;2022-12-04T11:56:28;23.20;;;9.50;;
74124;SDS011;62475;52.192;5.396;2022-12-04T11:59:03;18.50;;;9.00;;
74124;SDS011;62475;52.192;5.396;2022-12-04T12:07:14;20.92;;;8.50;;
74124;SDS011;62475;52.192;5.396;2022-12-04T12:10:01;20.63;;;9.15;;
74124;SDS011;62475;52.192;5.396;2022-12-04T12:15:40;18.02;;;8.80;;
74124;SDS011;62475;52.192;5.396;2022-12-04T12:26:44;17.25;;;7.57;;
74124;SDS011;62475;52.192;5.396;2022-12-04T12:32:09;18.33;;;9.05;;
74124;SDS011;62475;52.192;5.396;2022-12-04T12:34:45;21.50;;;8.63;;
74124;SDS011;62475;52.192;5.396;2022-12-04T12:42:27;22.42;;;9.10;;
74124;SDS011;62475;52.192;5.396;2022-12-04T12:45:03;20.05;;;8.20;;
74124;SDS011;62475;52.192;5.396;2022-12-04T12:47:41;11.68;;;5.97;;
74124;SDS011;62475;52.192;5.396;2022-12-04T12:52:53;18.00;;;9.23;;
74124;SDS011;62475;52.192;5.396;2022-12-04T12:56:04;22.60;;;9.05;;
74124;SDS011;62475;52.192;5.396;2022-12-04T12:58:17;20.75;;;9.10;;
74124;SDS011;62475;52.192;5.396;2022-12-04T13:01:13;17.75;;;6.82;;
74124;SDS011;62475;52.192;5.396;2022-12-04T13:06:12;16.70;;;7.13;;
74124;SDS011;62475;52.192;5.396;2022-12-04T13:08:43;20.48;;;7.78;;
74124;SDS011;62475;52.192;5.396;2022-12-04T13:11:21;16.92;;;8.27;;
74124;SDS011;62475;52.192;5.396;2022-12-04T13:13:49;18.00;;;6.70;;
74124;SDS011;62475;52.192;5.396;2022-12-04T13:21:43;14.90;;;6.32;;
74124;SDS011;62475;52.192;5.396;2022-12-04T13:24:21;20.92;;;7.70;;
74124;SDS011;62475;52.192;5.396;2022-12-04T13:27:13;16.95;;;8.25;;
74124;SDS011;62475;52.192;5.396;2022-12-04T13:35:25;18.15;;;7.68;;
74124;SDS011;62475;52.192;5.396;2022-12-04T13:40:51;23.58;;;10.40;;
74124;SDS011;62475;52.192;5.396;2022-12-04T13:43:24;21.42;;;9.20;;
74124;SDS011;62475;52.192;5.396;2022-12-04T13:45:56;17.33;;;7.65;;
74124;SDS011;62475;52.192;5.396;2022-12-04T13:48:26;17.42;;;8.38;;
74124;SDS011;62475;52.192;5.396;2022-12-04T13:51:04;22.35;;;9.85;;
74124;SDS011;62475;52.192;5.396;2022-12-04T13:53:47;16.50;;;7.28;;
74124;SDS011;62475;52.192;5.396;2022-12-04T13:56:25;21.67;;;8.50;;
74124;SDS011;62475;52.192;5.396;2022-12-04T13:59:02;22.83;;;8.88;;
74124;SDS011;62475;52.192;5.396;2022-12-04T14:01:44;18.30;;;8.05;;
74124;SDS011;62475;52.192;5.396;2022-12-04T14:04:31;19.15;;;9.48;;
74124;SDS011;62475;52.192;5.396;2022-12-04T14:09:55;22.55;;;10.45;;
74124;SDS011;62475;52.192;5.396;2022-12-04T14:12:27;29.30;;;11.45;;
74124;SDS011;62475;52.192;5.396;2022-12-04T14:15:02;24.75;;;11.00;;
74124;SDS011;62475;52.192;5.396;2022-12-04T14:17:32;27.90;;;11.18;;
74124;SDS011;62475;52.192;5.396;2022-12-04T14:20:00;30.95;;;13.55;;
74124;SDS011;62475;52.192;5.396;2022-12-04T14:30:04;31.35;;;12.30;;
74124;SDS011;62475;52.192;5.396;2022-12-04T14:32:39;32.17;;;13.25;;
74124;SDS011;62475;52.192;5.396;2022-12-04T14:35:12;28.52;;;11.10;;
74124;SDS011;62475;52.192;5.396;2022-12-04T14:37:49;30.30;;;12.95;;
74124;SDS011;62475;52.192;5.396;2022-12-04T14:40:19;26.95;;;11.43;;
74124;SDS011;62475;52.192;5.396;2022-12-04T14:42:48;24.58;;;11.40;;
74124;SDS011;62475;52.192;5.396;2022-12-04T14:45:24;38.17;;;14.38;;
74124;SDS011;62475;52.192;5.396;2022-12-04T14:50:57;39.13;;;15.50;;
74124;SDS011;62475;52.192;5.396;2022-12-04T14:56:31;33.60;;;12.27;;
74124;SDS011;62475;52.192;5.396;2022-12-04T14:59:20;33.72;;;13.98;;
74124;SDS011;62475;52.192;5.396;2022-12-04T15:01:51;35.85;;;13.15;;
74124;SDS011;62475;52.192;5.396;2022-12-04T15:04:22;40.92;;;15.80;;
74124;SDS011;62475;52.192;5.396;2022-12-04T15:06:51;31.60;;;13.77;;
74124;SDS011;62475;52.192;5.396;2022-12-04T15:09:19;26.35;;;12.65;;
74124;SDS011;62475;52.192;5.396;2022-12-04T15:12:39;36.95;;;14.80;;
74124;SDS011;62475;52.192;5.396;2022-12-04T15:15:16;33.53;;;14.45;;
74124;SDS011;62475;52.192;5.396;2022-12-04T15:17:53;46.55;;;18.50;;
74124;SDS011;62475;52.192;5.396;2022-12-04T15:20:22;39.58;;;14.35;;
74124;SDS011;62475;52.192;5.396;2022-12-04T15:22:48;32.00;;;12.40;;
74124;SDS011;62475;52.192;5.396;2022-12-04T15:25:14;30.02;;;13.57;;
74124;SDS011;62475;52.192;5.396;2022-12-04T15:27:47;46.38;;;13.82;;
74124;SDS011;62475;52.192;5.396;2022-12-04T15:30:18;40.15;;;14.70;;
74124;SDS011;62475;52.192;5.396;2022-12-04T15:32:47;41.55;;;16.08;;
74124;SDS011;62475;52.192;5.396;2022-12-04T15:35:22;41.00;;;16.92;;
74124;SDS011;62475;52.192;5.396;2022-12-04T15:37:51;39.55;;;15.20;;
74124;SDS011;62475;52.192;5.396;2022-12-04T15:40:20;37.15;;;16.52;;
74124;SDS011;62475;52.192;5.396;2022-12-04T15:42:47;20.92;;;9.38;;
74124;SDS011;62475;52.192;5.396;2022-12-04T15:50:08;33.72;;;13.32;;
74124;SDS011;62475;52.192;5.396;2022-12-04T15:55:23;37.90;;;13.73;;
74124;SDS011;62475;52.192;5.396;2022-12-04T15:57:51;31.67;;;13.50;;
74124;SDS011;62475;52.192;5.396;2022-12-04T16:02:48;34.40;;;13.80;;
74124;SDS011;62475;52.192;5.396;2022-12-04T16:07:49;42.25;;;15.05;;
74124;SDS011;62475;52.192;5.396;2022-12-04T16:10:20;36.45;;;15.52;;
74124;SDS011;62475;52.192;5.396;2022-12-04T16:12:55;39.72;;;13.95;;
74124;SDS011;62475;52.192;5.396;2022-12-04T16:15:23;26.38;;;12.00;;
74124;SDS011;62475;52.192;5.396;2022-12-04T16:17:49;34.88;;;12.40;;
74124;SDS011;62475;52.192;5.396;2022-12-04T16:20:15;34.10;;;15.27;;
74124;SDS011;62475;52.192;5.396;2022-12-04T16:22:41;33.00;;;13.70;;
74124;SDS011;62475;52.192;5.396;2022-12-04T16:25:09;33.90;;;14.50;;
74124;SDS011;62475;52.192;5.396;2022-12-04T16:27:35;42.20;;;17.05;;
74124;SDS011;62475;52.192;5.396;2022-12-04T16:30:01;31.27;;;13.98;;
74124;SDS011;62475;52.192;5.396;2022-12-04T16:32:30;28.77;;;13.50;;
74124;SDS011;62475;52.192;5.396;2022-12-04T16:35:01;32.42;;;14.27;;
74124;SDS011;62475;52.192;5.396;2022-12-04T16:37:26;33.85;;;13.50;;
74124;SDS011;62475;52.192;5.396;2022-12-04T16:39:52;30.95;;;12.88;;